createdAt,value
2022-08-21T00:00:34.261Z,19.60
2022-08-21T00:03:07.169Z,19.60
2022-08-21T00:05:39.776Z,19.60
2022-08-21T00:08:08.404Z,19.50
2022-08-21T00:10:36.229Z,19.40
2022-08-21T00:13:07.174Z,19.50
2022-08-21T00:15:37.994Z,19.50
2022-08-21T00:18:09.181Z,19.50
2022-08-21T00:20:38.505Z,19.40
2022-08-21T00:23:06.453Z,19.40
2022-08-21T00:25:34.527Z,19.30
2022-08-21T00:28:03.008Z,19.30
2022-08-21T00:30:31.607Z,19.30
2022-08-21T00:32:59.858Z,19.20
2022-08-21T00:35:35.565Z,19.20
2022-08-21T00:38:05.982Z,19.20
2022-08-21T00:40:50.747Z,19.20
2022-08-21T00:43:23.473Z,19.20
2022-08-21T00:45:52.673Z,19.20
2022-08-21T00:48:21.178Z,19.20
2022-08-21T00:51:26.492Z,19.10
2022-08-21T00:54:00.829Z,19.10
2022-08-21T00:56:31.161Z,19.10
2022-08-21T00:59:01.272Z,19.00
2022-08-21T01:01:29.258Z,19.00
2022-08-21T01:03:57.148Z,19.10
2022-08-21T01:06:25.133Z,19.00
2022-08-21T01:08:52.980Z,19.10
2022-08-21T01:11:21.808Z,19.10
2022-08-21T01:13:50.239Z,19.10
2022-08-21T01:16:21.925Z,19.10
2022-08-21T01:18:51.320Z,19.10
2022-08-21T01:21:27.967Z,19.00
2022-08-21T01:23:57.633Z,18.90
2022-08-21T01:26:34.591Z,19.00
2022-08-21T01:29:28.990Z,18.90
2022-08-21T01:31:56.960Z,18.90
2022-08-21T01:34:25.158Z,19.00
2022-08-21T01:36:53.351Z,18.90
2022-08-21T01:39:21.411Z,18.90
2022-08-21T01:41:49.197Z,18.90
2022-08-21T01:44:17.106Z,18.90
2022-08-21T01:46:44.880Z,18.90
2022-08-21T01:49:12.650Z,18.90
2022-08-21T01:51:40.460Z,18.90
2022-08-21T01:54:08.374Z,18.90
2022-08-21T01:56:47.775Z,18.80
2022-08-21T01:59:16.126Z,18.80
2022-08-21T02:01:44.183Z,18.70
2022-08-21T02:04:12.385Z,18.70
2022-08-21T02:06:40.619Z,18.70
2022-08-21T02:09:11.574Z,18.60
2022-08-21T02:11:41.479Z,18.60
2022-08-21T02:14:15.257Z,18.60
2022-08-21T02:17:05.332Z,18.60
2022-08-21T02:19:40.333Z,18.50
2022-08-21T02:22:10.891Z,18.50
2022-08-21T02:24:53.936Z,18.50
2022-08-21T02:27:26.753Z,18.50
2022-08-21T02:29:58.585Z,18.50
2022-08-21T02:32:27.166Z,18.50
2022-08-21T02:34:55.815Z,18.40
2022-08-21T02:37:25.022Z,18.30
2022-08-21T02:39:53.321Z,18.20
2022-08-21T02:42:21.225Z,18.20
2022-08-21T02:44:49.042Z,18.10
2022-08-21T02:47:16.866Z,18.10
2022-08-21T02:49:44.616Z,18.00
2022-08-21T02:52:12.981Z,17.90
2022-08-21T02:54:40.789Z,17.90
2022-08-21T02:57:09.274Z,17.80
2022-08-21T02:59:37.232Z,17.70
2022-08-21T03:02:05.279Z,17.70
2022-08-21T03:04:33.287Z,17.70
2022-08-21T03:07:01.483Z,17.70
2022-08-21T03:09:29.247Z,17.70
2022-08-21T03:11:57.044Z,17.60
2022-08-21T03:14:24.994Z,17.60
2022-08-21T03:16:53.067Z,17.60
2022-08-21T03:19:21.754Z,17.60
2022-08-21T03:21:49.893Z,17.60
2022-08-21T03:24:17.694Z,17.60
2022-08-21T03:26:49.180Z,17.60
2022-08-21T03:29:17.827Z,17.50
2022-08-21T03:31:45.630Z,17.40
2022-08-21T03:34:13.443Z,17.40
2022-08-21T03:36:41.580Z,17.40
2022-08-21T03:39:11.375Z,17.50
2022-08-21T03:41:39.261Z,17.50
2022-08-21T03:44:07.124Z,17.50
2022-08-21T03:46:35.221Z,17.50
2022-08-21T03:49:03.525Z,17.60
2022-08-21T03:51:33.304Z,17.60
2022-08-21T03:54:01.158Z,17.50
2022-08-21T03:56:29.118Z,17.50
2022-08-21T03:58:57.474Z,17.50
2022-08-21T04:01:25.844Z,17.50
2022-08-21T04:03:53.697Z,17.50
2022-08-21T04:06:21.599Z,17.50
2022-08-21T04:08:49.574Z,17.50
2022-08-21T04:11:17.399Z,17.50
2022-08-21T04:13:46.117Z,17.50
2022-08-21T04:16:15.232Z,17.50
2022-08-21T04:18:43.368Z,17.50
2022-08-21T04:21:12.670Z,17.40
2022-08-21T04:23:41.490Z,17.40
2022-08-21T04:26:09.372Z,17.50
2022-08-21T04:28:37.126Z,17.50
2022-08-21T04:31:05.254Z,17.60
2022-08-21T04:33:33.075Z,17.50
2022-08-21T04:36:01.355Z,17.50
2022-08-21T04:38:36.600Z,17.40
2022-08-21T04:41:06.475Z,17.30
2022-08-21T04:43:34.300Z,17.20
2022-08-21T04:46:02.325Z,17.20
2022-08-21T04:48:30.591Z,17.20
2022-08-21T04:51:08.550Z,17.20
2022-08-21T04:54:00.029Z,17.20
2022-08-21T04:56:52.968Z,17.20
2022-08-21T04:59:36.694Z,17.10
2022-08-21T05:02:07.996Z,17.10
2022-08-21T05:04:42.485Z,17.00
2022-08-21T05:07:42.412Z,17.10
2022-08-21T05:10:13.767Z,17.10
2022-08-21T05:12:44.040Z,17.10
2022-08-21T05:15:13.664Z,17.20
2022-08-21T05:17:55.425Z,17.10
2022-08-21T05:20:29.750Z,17.20
2022-08-21T05:22:58.777Z,17.20
2022-08-21T05:25:28.271Z,17.30
2022-08-21T05:27:56.160Z,17.40
2022-08-21T05:30:28.511Z,17.40
2022-08-21T05:33:01.026Z,17.40
2022-08-21T05:35:30.743Z,17.50
2022-08-21T05:37:59.456Z,17.50
2022-08-21T05:40:28.540Z,17.50
2022-08-21T05:42:57.541Z,17.50
2022-08-21T05:45:41.280Z,17.60
2022-08-21T05:48:17.909Z,17.70
2022-08-21T05:50:48.570Z,17.70
2022-08-21T05:53:19.522Z,17.80
2022-08-21T05:55:48.326Z,17.80
2022-08-21T05:58:19.612Z,17.90
2022-08-21T06:00:49.402Z,17.90
2022-08-21T06:03:44.026Z,17.90
2022-08-21T06:06:12.271Z,18.00
2022-08-21T06:08:40.213Z,18.00
2022-08-21T06:11:11.387Z,18.00
2022-08-21T06:13:40.115Z,18.10
2022-08-21T06:16:15.969Z,18.10
2022-08-21T06:18:46.141Z,18.10
2022-08-21T06:21:15.287Z,18.20
2022-08-21T06:23:44.784Z,18.20
2022-08-21T06:26:14.904Z,18.30
2022-08-21T06:28:43.814Z,18.40
2022-08-21T06:31:21.503Z,18.40
2022-08-21T06:33:49.984Z,18.50
2022-08-21T06:36:19.003Z,18.50
2022-08-21T06:38:50.770Z,18.60
2022-08-21T06:41:23.943Z,18.70
2022-08-21T06:43:56.137Z,18.70
2022-08-21T06:46:29.908Z,18.80
2022-08-21T06:48:58.539Z,18.80
2022-08-21T06:51:28.259Z,18.80
2022-08-21T06:53:56.685Z,18.90
2022-08-21T06:56:27.313Z,19.00
2022-08-21T06:58:55.141Z,18.90
2022-08-21T07:01:27.120Z,19.00
2022-08-21T07:03:55.089Z,19.10
2022-08-21T07:06:22.861Z,19.10
2022-08-21T07:08:50.655Z,19.20
2022-08-21T07:11:25.194Z,19.20
2022-08-21T07:13:55.184Z,19.30
2022-08-21T07:16:24.764Z,19.30
2022-08-21T07:18:52.874Z,19.30
2022-08-21T07:21:25.600Z,19.30
2022-08-21T07:23:54.298Z,19.30
2022-08-21T07:26:24.434Z,19.40
2022-08-21T07:28:52.921Z,19.40
2022-08-21T07:31:24.182Z,19.50
2022-08-21T07:33:52.971Z,19.60
2022-08-21T07:36:21.104Z,19.60
2022-08-21T07:38:49.026Z,19.70
2022-08-21T07:41:29.568Z,19.70
2022-08-21T07:43:58.671Z,19.80
2022-08-21T07:46:28.025Z,19.90
2022-08-21T07:48:56.041Z,20.00
2022-08-21T07:51:29.280Z,20.00
2022-08-21T07:54:00.233Z,20.10
2022-08-21T07:56:31.086Z,20.10
2022-08-21T07:58:59.067Z,20.20
2022-08-21T08:01:27.303Z,20.20
2022-08-21T08:03:56.000Z,20.20
2022-08-21T08:06:24.355Z,20.20
2022-08-21T08:08:52.156Z,20.30
2022-08-21T08:11:20.029Z,20.30
2022-08-21T08:13:53.444Z,20.40
2022-08-21T08:16:21.465Z,20.40
2022-08-21T08:18:49.396Z,20.40
2022-08-21T08:21:17.765Z,20.50
2022-08-21T08:23:46.215Z,20.60
2022-08-21T08:26:14.129Z,20.60
2022-08-21T08:28:41.982Z,20.60
2022-08-21T08:31:09.837Z,20.70
2022-08-21T08:33:37.667Z,20.70
2022-08-21T08:36:08.001Z,20.80
2022-08-21T08:38:36.085Z,20.80
2022-08-21T08:41:16.835Z,20.90
2022-08-21T08:43:54.192Z,20.90
2022-08-21T08:46:47.111Z,21.00
2022-08-21T08:49:28.180Z,21.00
2022-08-21T08:52:23.986Z,21.10
2022-08-21T08:55:14.248Z,21.10
2022-08-21T08:57:49.930Z,21.10
2022-08-21T09:00:22.157Z,21.20
2022-08-21T09:02:58.591Z,21.20
2022-08-21T09:05:57.644Z,21.30
2022-08-21T09:08:59.701Z,21.30
2022-08-21T09:11:45.335Z,21.40
2022-08-21T09:14:38.263Z,21.50
2022-08-21T09:18:00.066Z,21.60
2022-08-21T09:20:54.431Z,21.60
2022-08-21T09:24:19.335Z,21.70
2022-08-21T09:27:09.416Z,21.70
2022-08-21T09:29:42.012Z,21.80
2022-08-21T09:32:20.756Z,21.90
2022-08-21T09:35:09.612Z,21.90
2022-08-21T09:38:03.264Z,22.00
2022-08-21T09:40:44.344Z,22.10
2022-08-21T09:43:21.971Z,22.20
2022-08-21T09:46:01.873Z,22.20
2022-08-21T09:48:32.530Z,22.20
2022-08-21T09:51:14.071Z,22.30
2022-08-21T09:54:08.472Z,22.30
2022-08-21T09:57:24.998Z,22.30
2022-08-21T09:59:52.799Z,22.40
2022-08-21T10:02:32.312Z,22.40
2022-08-21T10:05:10.293Z,22.50
2022-08-21T10:07:39.509Z,22.50
2022-08-21T10:10:20.679Z,22.50
2022-08-21T10:13:07.206Z,22.60
2022-08-21T10:16:01.988Z,22.60
2022-08-21T10:18:43.382Z,22.70
2022-08-21T10:21:36.313Z,22.70
2022-08-21T10:24:21.349Z,22.80
2022-08-21T10:27:52.369Z,22.90
2022-08-21T10:30:39.847Z,23.00
2022-08-21T10:33:40.736Z,23.00
2022-08-21T10:36:21.194Z,23.10
2022-08-21T10:39:26.345Z,23.10
2022-08-21T10:42:06.495Z,23.20
2022-08-21T10:45:12.491Z,23.30
2022-08-21T10:47:58.385Z,23.30
2022-08-21T10:50:45.710Z,23.30
2022-08-21T10:53:48.752Z,23.40
2022-08-21T10:56:25.512Z,23.30
2022-08-21T10:59:56.301Z,23.40
2022-08-21T11:02:54.614Z,23.50
2022-08-21T11:05:39.616Z,23.60
2022-08-21T11:08:20.301Z,23.60
2022-08-21T11:11:10.364Z,23.70
2022-08-21T11:13:46.832Z,23.70
2022-08-21T11:16:43.747Z,23.60
2022-08-21T11:19:31.417Z,23.70
2022-08-21T11:22:01.430Z,23.70
2022-08-21T11:25:14.677Z,23.80
2022-08-21T11:28:14.367Z,24.00
2022-08-21T11:31:00.327Z,24.00
2022-08-21T11:33:37.464Z,24.00
2022-08-21T11:36:49.422Z,24.00
2022-08-21T11:39:34.716Z,24.00
2022-08-21T11:42:51.478Z,24.20
2022-08-21T11:45:48.243Z,24.20
2022-08-21T11:49:01.312Z,24.40
2022-08-21T11:51:38.370Z,24.40
2022-08-21T11:54:32.814Z,24.50
2022-08-21T11:57:14.307Z,24.60
2022-08-21T11:59:56.843Z,24.60
2022-08-21T12:02:36.323Z,24.60
2022-08-21T12:05:24.538Z,24.70
2022-08-21T12:08:10.724Z,24.70
2022-08-21T12:10:47.200Z,24.70
2022-08-21T12:13:36.733Z,24.80
2022-08-21T12:16:15.537Z,24.90
2022-08-21T12:18:44.863Z,24.90
2022-08-21T12:21:25.398Z,25.00
2022-08-21T12:24:14.842Z,25.10
2022-08-21T12:27:21.032Z,25.30
2022-08-21T12:30:00.187Z,25.40
2022-08-21T12:32:46.009Z,25.50
2022-08-21T12:35:28.693Z,25.50
2022-08-21T12:38:18.177Z,25.60
2022-08-21T12:41:07.321Z,25.80
2022-08-21T12:43:48.618Z,25.90
2022-08-21T12:46:22.339Z,26.00
2022-08-21T12:49:02.612Z,26.20
2022-08-21T12:52:00.072Z,26.20
2022-08-21T12:54:38.918Z,26.50
2022-08-21T12:57:09.141Z,26.60
2022-08-21T12:59:40.768Z,26.70
2022-08-21T13:02:23.269Z,26.80
2022-08-21T13:04:52.989Z,26.90
2022-08-21T13:07:29.261Z,26.90
2022-08-21T13:10:28.184Z,27.10
2022-08-21T13:13:12.733Z,27.10
2022-08-21T13:15:47.625Z,27.20
2022-08-21T13:18:29.692Z,27.30
2022-08-21T13:21:16.048Z,27.50
2022-08-21T13:23:45.069Z,27.60
2022-08-21T13:26:23.214Z,27.70
2022-08-21T13:28:51.312Z,27.80
2022-08-21T13:31:32.643Z,28.00
2022-08-21T13:34:00.734Z,28.00
2022-08-21T13:36:36.622Z,28.20
2022-08-21T13:39:07.924Z,28.30
2022-08-21T13:41:39.904Z,28.60
2022-08-21T13:44:20.837Z,28.80
2022-08-21T13:46:50.959Z,29.10
2022-08-21T13:49:27.214Z,29.20
2022-08-21T13:51:55.043Z,29.30
2022-08-21T13:54:38.675Z,29.40
2022-08-21T13:57:19.162Z,29.60
2022-08-21T13:59:47.621Z,29.70
2022-08-21T14:02:24.711Z,29.70
2022-08-21T14:05:00.009Z,29.70
2022-08-21T14:07:30.198Z,29.70
2022-08-21T14:10:01.248Z,29.80
2022-08-21T14:12:52.066Z,30.10
2022-08-21T14:15:29.559Z,30.10
2022-08-21T14:18:16.829Z,30.10
2022-08-21T14:20:44.993Z,30.10
2022-08-21T14:23:24.378Z,30.20
2022-08-21T14:25:53.281Z,30.30
2022-08-21T14:28:34.689Z,30.40
2022-08-21T14:31:18.376Z,30.60
2022-08-21T14:33:47.915Z,30.80
2022-08-21T14:36:16.227Z,30.90
2022-08-21T14:38:43.987Z,31.00
2022-08-21T14:41:22.639Z,30.90
2022-08-21T14:44:01.192Z,31.00
2022-08-21T14:46:51.664Z,31.20
2022-08-21T14:49:28.795Z,31.20
2022-08-21T14:51:59.003Z,31.10
2022-08-21T14:54:32.720Z,30.90
2022-08-21T14:57:07.521Z,30.60
2022-08-21T14:59:36.615Z,30.30
2022-08-21T15:02:05.496Z,30.50
2022-08-21T15:04:35.295Z,30.40
2022-08-21T15:07:03.400Z,30.40
2022-08-21T15:09:31.198Z,30.40
2022-08-21T15:12:01.744Z,30.70
2022-08-21T15:14:33.887Z,30.70
2022-08-21T15:17:02.177Z,30.70
2022-08-21T15:19:30.729Z,30.80
2022-08-21T15:21:59.501Z,31.00
2022-08-21T15:24:27.808Z,31.30
2022-08-21T15:26:57.263Z,31.30
2022-08-21T15:29:25.108Z,31.30
2022-08-21T15:32:20.032Z,31.30
2022-08-21T15:34:48.004Z,31.30
2022-08-21T15:37:15.887Z,31.30
2022-08-21T15:39:46.303Z,31.20
2022-08-21T15:42:16.363Z,31.00
2022-08-21T15:44:45.916Z,30.80
2022-08-21T15:47:22.127Z,30.70
2022-08-21T15:49:50.020Z,30.40
2022-08-21T15:52:21.446Z,30.20
2022-08-21T15:54:50.241Z,30.30
2022-08-21T15:57:22.584Z,30.40
2022-08-21T16:00:07.033Z,30.40
2022-08-21T16:02:43.673Z,30.40
2022-08-21T16:05:13.123Z,30.20
2022-08-21T16:07:41.317Z,30.20
2022-08-21T16:10:09.486Z,30.20
2022-08-21T16:12:45.526Z,30.10
2022-08-21T16:15:20.047Z,29.80
2022-08-21T16:17:52.102Z,29.50
2022-08-21T16:20:30.769Z,29.40
2022-08-21T16:22:59.646Z,29.20
2022-08-21T16:25:28.135Z,29.00
2022-08-21T16:28:01.297Z,28.90
2022-08-21T16:30:30.768Z,28.90
2022-08-21T16:33:02.265Z,28.80
2022-08-21T16:35:31.368Z,28.80
2022-08-21T16:37:59.397Z,28.80
2022-08-21T16:40:29.750Z,28.50
2022-08-21T16:42:58.886Z,28.40
2022-08-21T16:45:31.181Z,28.40
2022-08-21T16:48:04.451Z,28.40
2022-08-21T16:50:32.419Z,28.30
2022-08-21T16:53:00.351Z,28.20
2022-08-21T16:55:28.512Z,28.10
2022-08-21T16:57:56.662Z,28.10
2022-08-21T17:00:24.529Z,28.00
2022-08-21T17:02:55.301Z,27.90
2022-08-21T17:05:24.844Z,27.80
2022-08-21T17:07:52.643Z,27.80
2022-08-21T17:10:20.643Z,27.70
2022-08-21T17:12:56.838Z,27.60
2022-08-21T17:15:31.412Z,27.60
2022-08-21T17:18:00.843Z,27.50
2022-08-21T17:20:29.372Z,27.50
2022-08-21T17:22:57.811Z,27.40
2022-08-21T17:25:26.745Z,27.30
2022-08-21T17:27:55.001Z,27.20
2022-08-21T17:30:23.088Z,27.20
2022-08-21T17:32:55.701Z,27.10
2022-08-21T17:35:24.111Z,27.00
2022-08-21T17:37:53.589Z,27.00
2022-08-21T17:40:21.557Z,26.90
2022-08-21T17:42:49.814Z,26.80
2022-08-21T17:45:20.079Z,26.80
2022-08-21T17:47:47.927Z,26.70
2022-08-21T17:50:22.588Z,26.60
2022-08-21T17:52:51.907Z,26.60
2022-08-21T17:55:21.564Z,26.40
2022-08-21T17:57:51.708Z,26.30
2022-08-21T18:00:20.911Z,26.20
2022-08-21T18:03:00.238Z,26.10
2022-08-21T18:05:28.607Z,26.00
2022-08-21T18:07:56.496Z,25.90
2022-08-21T18:10:25.186Z,25.80
2022-08-21T18:12:53.312Z,25.80
2022-08-21T18:15:21.889Z,25.70
2022-08-21T18:17:52.379Z,25.70
2022-08-21T18:20:22.525Z,25.60
2022-08-21T18:22:50.613Z,25.50
2022-08-21T18:25:18.656Z,25.50
2022-08-21T18:27:48.292Z,25.50
2022-08-21T18:30:23.662Z,25.40
2022-08-21T18:32:54.175Z,25.30
2022-08-21T18:35:23.155Z,25.20
2022-08-21T18:37:50.930Z,25.10
2022-08-21T18:40:21.042Z,25.10
2022-08-21T18:42:55.710Z,25.00
2022-08-21T18:45:24.679Z,24.90
2022-08-21T18:47:56.743Z,24.80
2022-08-21T18:50:29.047Z,24.70
2022-08-21T18:52:57.034Z,24.70
2022-08-21T18:55:25.765Z,24.60
2022-08-21T18:57:57.326Z,24.50
2022-08-21T19:00:30.787Z,24.50
2022-08-21T19:02:59.700Z,24.50
2022-08-21T19:05:27.968Z,24.40
2022-08-21T19:07:56.680Z,24.30
2022-08-21T19:10:28.893Z,24.30
2022-08-21T19:12:59.829Z,24.20
2022-08-21T19:15:29.893Z,24.10
2022-08-21T19:17:59.757Z,24.10
2022-08-21T19:20:36.622Z,24.00
2022-08-21T19:23:07.401Z,23.90
2022-08-21T19:25:39.705Z,23.70
2022-08-21T19:28:16.331Z,23.70
2022-08-21T19:31:01.783Z,23.60
2022-08-21T19:33:35.985Z,23.50
2022-08-21T19:36:06.557Z,23.50
2022-08-21T19:38:35.138Z,23.40
2022-08-21T19:41:04.394Z,23.30
2022-08-21T19:43:39.652Z,23.20
2022-08-21T19:46:08.013Z,23.20
2022-08-21T19:48:37.289Z,23.10
2022-08-21T19:51:05.806Z,23.00
2022-08-21T19:53:34.844Z,22.90
2022-08-21T19:56:02.881Z,22.90
2022-08-21T19:58:40.471Z,22.80
2022-08-21T20:01:16.569Z,22.70
2022-08-21T20:03:53.797Z,22.70
2022-08-21T20:06:36.534Z,22.60
2022-08-21T20:09:08.351Z,22.60
2022-08-21T20:12:07.713Z,22.60
2022-08-21T20:14:50.281Z,22.60
2022-08-21T20:17:20.314Z,22.50
2022-08-21T20:19:52.654Z,22.40
2022-08-21T20:22:23.440Z,22.40
2022-08-21T20:24:52.145Z,22.30
2022-08-21T20:27:25.939Z,22.30
2022-08-21T20:29:55.738Z,22.20
2022-08-21T20:32:23.639Z,22.10
2022-08-21T20:34:53.810Z,22.00
2022-08-21T20:37:36.401Z,22.00
2022-08-21T20:40:11.965Z,22.00
2022-08-21T20:42:48.430Z,21.90
2022-08-21T20:45:33.206Z,21.90
2022-08-21T20:48:28.570Z,21.90
2022-08-21T20:51:12.811Z,21.80
2022-08-21T20:53:59.360Z,21.80
2022-08-21T20:56:43.668Z,21.80
2022-08-21T20:59:34.928Z,21.70
2022-08-21T21:02:53.882Z,21.70
2022-08-21T21:05:42.431Z,21.60
2022-08-21T21:08:18.747Z,21.60
2022-08-21T21:11:08.006Z,21.60
2022-08-21T21:13:46.222Z,21.50
2022-08-21T21:16:50.664Z,21.50
2022-08-21T21:19:46.249Z,21.50
2022-08-21T21:22:35.429Z,21.50
2022-08-21T21:25:40.630Z,21.40
2022-08-21T21:28:21.800Z,21.40
2022-08-21T21:30:57.486Z,21.20
2022-08-21T21:33:25.859Z,21.30
2022-08-21T21:36:16.652Z,21.30
2022-08-21T21:38:54.104Z,21.20
2022-08-21T21:41:54.586Z,21.20
2022-08-21T21:44:57.144Z,21.20
2022-08-21T21:48:07.259Z,21.30
2022-08-21T21:50:49.870Z,21.20
2022-08-21T21:53:46.471Z,21.10
2022-08-21T21:57:09.000Z,21.10
2022-08-21T21:59:45.875Z,21.00
2022-08-21T22:02:32.303Z,21.00
2022-08-21T22:05:40.987Z,20.90
2022-08-21T22:09:09.312Z,20.90
2022-08-21T22:11:56.160Z,20.80
2022-08-21T22:14:38.329Z,20.80
2022-08-21T22:17:32.269Z,20.80
2022-08-21T22:20:19.772Z,20.70
2022-08-21T22:22:48.460Z,20.70
2022-08-21T22:25:25.595Z,20.70
2022-08-21T22:28:14.692Z,20.70
2022-08-21T22:30:52.197Z,20.60
2022-08-21T22:33:28.072Z,20.60
2022-08-21T22:35:58.906Z,20.60
2022-08-21T22:38:26.628Z,20.60
2022-08-21T22:41:23.140Z,20.60
2022-08-21T22:44:04.072Z,20.70
2022-08-21T22:46:47.620Z,20.60
2022-08-21T22:49:43.531Z,20.60
2022-08-21T22:52:26.760Z,20.60
2022-08-21T22:55:00.135Z,20.50
2022-08-21T22:57:33.910Z,20.50
2022-08-21T23:00:16.509Z,20.50
2022-08-21T23:02:52.078Z,20.40
2022-08-21T23:05:30.554Z,20.40
2022-08-21T23:08:35.835Z,20.40
2022-08-21T23:11:15.915Z,20.40
2022-08-21T23:13:48.848Z,20.30
2022-08-21T23:17:02.954Z,20.30
2022-08-21T23:20:03.447Z,20.30
2022-08-21T23:22:37.041Z,20.30
2022-08-21T23:25:35.629Z,20.20
2022-08-21T23:28:43.664Z,20.30
2022-08-21T23:31:35.843Z,20.30
2022-08-21T23:34:22.254Z,20.20
2022-08-21T23:37:24.059Z,20.20
2022-08-21T23:40:51.488Z,20.20
2022-08-21T23:44:25.070Z,20.20
2022-08-21T23:47:02.920Z,20.20
2022-08-21T23:49:44.301Z,20.20
2022-08-21T23:52:31.390Z,20.30
2022-08-21T23:55:24.679Z,20.30
2022-08-21T23:58:04.791Z,20.20
